Aérodrome :
LOGIN :

S'inscrire | Disclaimer

   EN    FR    IT 

 










Légende :    VFR   VFR Marginal   IFR   IFR Intensif   IFR Très Intensif
Visi : 
Plafond : 
>= 8 km
>= 3000ft
5 à 8 km
1000 à 3000 ft
1500m à 5 km
500 à 1000 ft
800 à 1500m
200 à 500 ft
< 800m
< 200 ft
Symboles :   Orages  Brouillard  Fortes neiges  Fortes précipitations  Vent > 20 kt
SIGMETs :   Divers  Orages  Givrage  Turbulence  Onde Orograph.  Cendres Volcan.







- Altitude de l'aérodrome : 1504 ft
- Code IATA : PNA


LEPP - Noain Pamplona

DERNIER METAR :
  • 152000Z 17008KT CAVOK 09/07 Q1020

METARs EXPIRÉS :
  • 151930Z 20005KT 150V240 CAVOK 09/07 Q1020
  • 151900Z 09003KT 060V140 CAVOK 08/06 Q1020
  • 151830Z 13001KT CAVOK 09/07 Q1020
  • 151800Z 07003KT 010V140 CAVOK 08/07 Q1020
  • 151730Z 15002KT 9999 FEW020 08/07 Q1020
  • 151700Z VRB02KT 9999 FEW020 08/07 Q1020

TAF TAF LEPP
Valide du 15 à 15h jusqu'au 16 à 15h UTC


151400Z 1515/1615 VRB04KT 9999 SCT040 TX10/1614Z TN03/1606Z
TEMPO 1522/1609 3000 RA
PROB40
TEMPO 1522/1609 BKN010
Pas de NOTAMs connus pour ce terrain.



MET'MAP, la Météo Aéronautique d'un coup d'oeil ! - Copyright ORBIFLY Décembre 2007 - Disclaimer

ORBIFLY MET'MAP TEAM :

Programmation & Développement : Alexandra Zaïnal
Conception & Développement : Baudouin d'Aumeries
Co-Programmation & Développement : Marc-Olivier Méhu
Soutien technique & logistique : Manuel Goepfert

Contact : metmap@orbifly.com




SOURCES & CREDITS :

   NOAA